Time;durP1;ratioP1;P1;durP2;ratioP2;P2;SDS_P1;SDS_P2;PMS_P1;PMS_P2;Temp;Humidity;BMP_temperature;BMP_pressure;BME280_temperature;BME280_humidity;BME280_pressure;Samples;Min_cycle;Max_cycle;Signal;HPM_P1;HPM_P2
2022/04/27 00:01:17;;;;;;;18.40;11.77;;;8.50;99.90;;;;;;5187769;28;20029;-71
2022/04/27 00:03:48;;;;;;;19.85;11.73;;;8.60;99.90;;;;;;5187617;28;20034;-71
2022/04/27 00:06:19;;;;;;;16.98;10.77;;;8.60;99.90;;;;;;5187450;28;20504;-71
2022/04/27 00:08:49;;;;;;;16.80;10.40;;;8.80;99.90;;;;;;5187324;28;20370;-71
2022/04/27 00:11:20;;;;;;;18.65;11.30;;;8.40;99.90;;;;;;5187340;28;20049;-71
2022/04/27 00:13:51;;;;;;;21.48;12.00;;;8.30;99.90;;;;;;5187287;28;20022;-71
2022/04/27 00:16:22;;;;;;;24.15;12.02;;;8.30;99.90;;;;;;5187378;28;20084;-70
2022/04/27 00:18:53;;;;;;;21.48;13.07;;;7.80;99.90;;;;;;5187160;28;20041;-71
2022/04/27 00:21:24;;;;;;;18.88;12.88;;;8.20;99.90;;;;;;5187047;28;20050;-71
2022/04/27 00:23:55;;;;;;;32.95;14.15;;;8.40;99.90;;;;;;5187164;28;20036;-71
2022/04/27 00:26:25;;;;;;;21.20;12.45;;;8.10;99.90;;;;;;5187157;28;20037;-72
2022/04/27 00:28:56;;;;;;;24.73;13.27;;;8.40;99.90;;;;;;5187119;28;20030;-70
2022/04/27 00:31:28;;;;;;;23.58;12.90;;;7.60;99.90;;;;;;5187165;28;20033;-70
2022/04/27 00:34:00;;;;;;;20.13;12.75;;;7.60;99.90;;;;;;5187067;28;20505;-73
2022/04/27 00:36:31;;;;;;;24.95;11.23;;;7.40;99.90;;;;;;5186929;28;20018;-73
2022/04/27 00:39:03;;;;;;;20.98;11.95;;;8.00;99.90;;;;;;5186246;28;20030;-70
2022/04/27 00:41:34;;;;;;;14.80;10.35;;;7.90;99.90;;;;;;5186397;28;20026;-72
2022/04/27 00:44:05;;;;;;;19.67;10.25;;;8.00;99.90;;;;;;5186893;28;20041;-71
2022/04/27 00:46:36;;;;;;;18.30;11.07;;;8.10;99.90;;;;;;5186720;28;20113;-71
2022/04/27 00:49:07;;;;;;;14.65;9.32;;;7.90;99.90;;;;;;5186716;28;20041;-72
2022/04/27 00:51:37;;;;;;;12.15;8.00;;;7.60;99.90;;;;;;5186709;28;20053;-70
2022/04/27 00:54:08;;;;;;;11.68;7.55;;;10.10;99.90;;;;;;5185513;28;20030;-71
2022/04/27 00:56:40;;;;;;;14.52;8.48;;;9.30;99.90;;;;;;5186491;28;20018;-72
2022/04/27 00:59:11;;;;;;;16.05;8.75;;;9.40;99.90;;;;;;5186665;28;20370;-73
2022/04/27 01:01:42;;;;;;;14.38;8.98;;;8.60;99.90;;;;;;5186559;28;20026;-73
2022/04/27 01:04:12;;;;;;;14.52;8.63;;;8.80;99.90;;;;;;5186622;28;20037;-72
2022/04/27 01:06:44;;;;;;;15.85;8.88;;;8.80;99.90;;;;;;5186445;28;20045;-72
2022/04/27 01:09:15;;;;;;;14.93;7.93;;;9.00;99.90;;;;;;5186558;28;20485;-73
2022/04/27 01:11:46;;;;;;;13.10;8.15;;;9.10;99.90;;;;;;5186339;28;20153;-69
2022/04/27 01:14:17;;;;;;;12.63;7.38;;;9.10;99.90;;;;;;5186495;28;20029;-72
2022/04/27 01:16:57;;;;;;;16.05;8.10;;;9.40;99.90;;;;;;5186362;28;20100;-72
2022/04/27 01:19:28;;;;;;;;;;;9.30;99.90;;;;;;5186845;28;20386;-71
2022/04/27 01:21:59;;;;;;;14.82;7.68;;;9.10;99.90;;;;;;5186347;28;19917;-71
2022/04/27 01:24:30;;;;;;;14.45;7.53;;;9.50;99.90;;;;;;5186067;28;20026;-72
2022/04/27 01:27:01;;;;;;;11.77;7.32;;;9.50;99.90;;;;;;5186333;28;20172;-72
2022/04/27 01:29:33;;;;;;;15.15;8.63;;;9.80;99.90;;;;;;5186326;28;20105;-72
2022/04/27 01:32:04;;;;;;;11.35;7.93;;;9.50;99.90;;;;;;5185015;28;20026;-73
2022/04/27 01:34:35;;;;;;;12.85;7.70;;;9.60;99.90;;;;;;5186137;28;20026;-73
2022/04/27 01:39:55;;;;;;;13.15;8.15;;;9.70;99.90;;;;;;5186311;28;20125;-70
2022/04/27 01:42:26;;;;;;;17.05;8.85;;;9.50;99.90;;;;;;5186116;28;20023;-72
2022/04/27 01:44:56;;;;;;;11.98;8.27;;;9.90;99.90;;;;;;5186165;28;20038;-73
2022/04/27 01:47:27;;;;;;;13.15;8.50;;;9.80;99.90;;;;;;5186053;28;20100;-73
2022/04/27 01:49:58;;;;;;;12.02;8.18;;;10.00;99.90;;;;;;5187550;28;20049;-72
2022/04/27 01:55:19;;;;;;;13.65;7.30;;;9.70;99.90;;;;;;5190133;28;20040;-73
2022/04/27 01:57:51;;;;;;;10.60;7.07;;;9.90;99.90;;;;;;5189999;28;20021;-71
2022/04/27 02:00:22;;;;;;;15.48;8.18;;;9.90;99.90;;;;;;5189936;28;20030;-72
2022/04/27 02:02:52;;;;;;;12.35;7.32;;;9.70;99.90;;;;;;5189859;28;20033;-71
2022/04/27 02:05:24;;;;;;;11.93;7.95;;;9.90;99.90;;;;;;5189750;28;20057;-71
2022/04/27 02:07:54;;;;;;;10.45;6.68;;;9.50;99.90;;;;;;5189894;28;20041;-73
2022/04/27 02:10:25;;;;;;;12.27;7.47;;;9.50;99.90;;;;;;5189745;28;20397;-71
2022/04/27 02:12:56;;;;;;;12.18;7.45;;;9.40;99.90;;;;;;5189603;28;20026;-72
2022/04/27 02:15:27;;;;;;;12.20;7.75;;;9.50;99.90;;;;;;5189681;28;20040;-72
2022/04/27 02:17:59;;;;;;;12.43;7.47;;;9.60;99.90;;;;;;5189527;28;20030;-72
2022/04/27 02:20:30;;;;;;;12.88;6.82;;;9.40;99.90;;;;;;5188291;28;20038;-72
2022/04/27 02:23:01;;;;;;;11.20;6.70;;;9.60;99.90;;;;;;5188359;28;20121;-70
2022/04/27 02:25:31;;;;;;;10.02;6.57;;;9.70;99.90;;;;;;5189537;28;20121;-70
2022/04/27 02:28:02;;;;;;;12.63;6.60;;;9.80;99.90;;;;;;5189349;28;20068;-71
2022/04/27 02:30:33;;;;;;;13.48;7.32;;;9.70;99.90;;;;;;5189362;28;20084;-72
2022/04/27 02:33:04;;;;;;;13.48;6.90;;;9.60;99.90;;;;;;5188100;28;20034;-71
2022/04/27 02:35:35;;;;;;;11.52;7.20;;;9.70;99.90;;;;;;5189348;28;20060;-72
2022/04/27 02:38:06;;;;;;;13.98;7.28;;;9.80;99.90;;;;;;5189301;28;20030;-73
2022/04/27 02:40:37;;;;;;;9.73;7.03;;;9.60;99.90;;;;;;5189463;28;20492;-70
2022/04/27 02:43:07;;;;;;;11.68;6.50;;;9.60;99.90;;;;;;5189117;28;20030;-72
2022/04/27 02:45:41;;;;;;;11.98;6.93;;;9.60;99.90;;;;;;5189135;28;20033;-73
2022/04/27 02:48:11;;;;;;;11.30;6.40;;;9.70;99.90;;;;;;5189023;28;20609;-72
2022/04/27 02:53:35;;;;;;;10.38;6.07;;;9.40;99.90;;;;;;5189191;28;20374;-70
2022/04/27 02:56:06;;;;;;;8.75;6.28;;;9.40;99.90;;;;;;5188892;28;20041;-71
2022/04/27 02:58:37;;;;;;;13.57;7.13;;;9.70;99.90;;;;;;5188939;28;20018;-70
2022/04/27 03:01:07;;;;;;;12.90;6.15;;;9.40;99.90;;;;;;5187721;28;20026;-69
2022/04/27 03:03:38;;;;;;;11.82;6.38;;;9.60;99.90;;;;;;5188844;28;20022;-72
2022/04/27 03:06:09;;;;;;;16.10;7.03;;;9.60;99.90;;;;;;5188570;28;20113;-72
2022/04/27 03:08:40;;;;;;;12.27;6.85;;;9.40;99.90;;;;;;5188523;28;20036;-71
2022/04/27 03:11:10;;;;;;;10.50;6.90;;;9.40;99.90;;;;;;5188515;28;20032;-70
2022/04/27 03:13:41;;;;;;;12.00;6.82;;;9.40;99.90;;;;;;5188583;28;20026;-72
2022/04/27 03:16:12;;;;;;;12.07;7.80;;;9.50;99.90;;;;;;5188464;28;20034;-71
2022/04/27 03:18:43;;;;;;;9.85;6.70;;;9.30;99.90;;;;;;5188820;28;20084;-72
2022/04/27 03:21:14;;;;;;;11.82;6.60;;;9.50;99.90;;;;;;5188258;28;20050;-70
2022/04/27 03:23:45;;;;;;;13.63;7.63;;;9.50;99.90;;;;;;5188173;28;20041;-71
2022/04/27 03:26:16;;;;;;;12.95;7.57;;;9.90;99.90;;;;;;5188304;28;20038;-71
2022/04/27 03:28:46;;;;;;;13.63;7.60;;;9.50;99.90;;;;;;5188328;28;20473;-70
2022/04/27 03:31:17;;;;;;;13.30;7.43;;;9.60;99.90;;;;;;5188260;28;20034;-72
2022/04/27 03:33:48;;;;;;;13.95;7.57;;;9.80;99.90;;;;;;5188171;28;20022;-70
2022/04/27 03:36:19;;;;;;;14.25;7.00;;;9.80;99.90;;;;;;5187940;28;20057;-71
2022/04/27 03:38:49;;;;;;;15.18;7.38;;;10.00;99.90;;;;;;5188064;28;20041;-72
2022/04/27 03:41:22;;;;;;;11.57;6.80;;;10.00;99.90;;;;;;5188015;28;20108;-70
2022/04/27 03:43:53;;;;;;;15.20;7.38;;;9.80;99.90;;;;;;5188028;28;20018;-71
2022/04/27 03:46:23;;;;;;;10.80;6.75;;;10.00;99.90;;;;;;5187780;28;20397;-71
2022/04/27 03:48:54;;;;;;;11.90;6.35;;;10.00;99.90;;;;;;5187763;28;20374;-69
2022/04/27 03:51:25;;;;;;;15.98;7.55;;;10.30;99.90;;;;;;5187761;28;20418;-72
2022/04/27 03:53:56;;;;;;;11.63;6.97;;;10.60;99.90;;;;;;5187836;28;20021;-70
2022/04/27 03:56:27;;;;;;;12.15;7.05;;;10.80;99.90;;;;;;5187716;28;20037;-72
2022/04/27 03:58:57;;;;;;;11.75;7.57;;;11.00;99.90;;;;;;5187770;28;20025;-72
2022/04/27 04:01:28;;;;;;;12.68;7.25;;;11.20;99.90;;;;;;5187568;28;20108;-70
2022/04/27 04:03:59;;;;;;;15.20;7.40;;;11.10;99.90;;;;;;5187695;28;20533;-70
2022/04/27 04:06:30;;;;;;;15.13;7.50;;;11.00;99.90;;;;;;5187269;28;20034;-71
2022/04/27 04:09:01;;;;;;;10.40;7.18;;;11.60;99.90;;;;;;5187529;28;20051;-69
2022/04/27 04:11:31;;;;;;;9.45;6.50;;;11.70;99.90;;;;;;5187420;28;20033;-72
2022/04/27 04:14:02;;;;;;;11.20;6.50;;;11.80;99.90;;;;;;5185909;28;20118;-72
2022/04/27 04:16:33;;;;;;;11.50;6.85;;;11.90;99.90;;;;;;5187297;28;20014;-70
2022/04/27 04:19:04;;;;;;;9.85;6.07;;;12.00;99.90;;;;;;5187192;28;20069;-72
2022/04/27 04:21:35;;;;;;;10.00;6.05;;;12.10;99.90;;;;;;5185840;28;20544;-71
2022/04/27 04:24:06;;;;;;;10.68;6.10;;;12.20;99.90;;;;;;5187268;28;20033;-71
2022/04/27 04:29:34;;;;;;;9.73;4.97;;;12.60;99.90;;;;;;5156698;28;20033;-72
2022/04/27 04:32:05;;;;;;;13.95;5.70;;;12.60;99.90;;;;;;5187056;28;20069;-72
2022/04/27 04:34:35;;;;;;;8.80;5.20;;;13.00;99.90;;;;;;5186893;28;20029;-71
2022/04/27 04:37:06;;;;;;;10.90;4.78;;;12.70;99.90;;;;;;5186970;28;20029;-72
2022/04/27 04:39:37;;;;;;;7.93;5.25;;;13.00;99.90;;;;;;5187035;28;20442;-71
2022/04/27 04:42:08;;;;;;;8.38;4.65;;;13.10;99.90;;;;;;5187090;28;20022;-69
2022/04/27 04:44:39;;;;;;;9.18;5.40;;;12.90;99.90;;;;;;5185588;28;20060;-72
2022/04/27 04:47:10;;;;;;;7.50;5.30;;;13.20;99.90;;;;;;5185649;28;20049;-70
2022/04/27 04:49:41;;;;;;;8.68;4.68;;;13.30;99.90;;;;;;5184585;28;20025;-70
2022/04/27 04:52:11;;;;;;;7.68;5.10;;;13.50;99.90;;;;;;5184750;28;20423;-71
2022/04/27 04:54:42;;;;;;;9.90;4.80;;;13.60;99.90;;;;;;5186191;28;20018;-72
2022/04/27 04:57:13;;;;;;;14.25;4.68;;;13.40;99.90;;;;;;5186133;28;20022;-70
2022/04/27 04:59:44;;;;;;;7.97;4.50;;;13.50;99.90;;;;;;5185920;28;20053;-71
2022/04/27 05:02:15;;;;;;;9.85;4.82;;;13.70;99.90;;;;;;5185649;28;20501;-70
2022/04/27 05:04:46;;;;;;;8.82;4.57;;;13.80;99.90;;;;;;5185252;28;20037;-71
2022/04/27 05:07:18;;;;;;;13.32;4.68;;;13.80;99.90;;;;;;5185777;28;20054;-73
2022/04/27 05:09:49;;;;;;;9.18;5.00;;;14.10;99.90;;;;;;5184619;28;20366;-72
2022/04/27 05:12:19;;;;;;;5.88;4.60;;;13.90;99.90;;;;;;5200750;28;20018;-72
2022/04/27 05:14:51;;;;;;;7.30;4.40;;;14.00;99.90;;;;;;5186016;28;20017;-73
2022/04/27 05:17:23;;;;;;;6.10;3.80;;;14.00;99.90;;;;;;5185630;28;20108;-72
2022/04/27 05:19:54;;;;;;;6.35;4.38;;;14.10;99.90;;;;;;5186041;28;20040;-72
2022/04/27 05:22:25;;;;;;;9.55;4.45;;;14.10;99.90;;;;;;5186362;28;20053;-70
2022/04/27 05:24:56;;;;;;;12.85;4.30;;;14.40;99.90;;;;;;5187816;28;20057;-72
2022/04/27 05:27:26;;;;;;;8.57;4.70;;;14.50;99.90;;;;;;5190613;28;20466;-72
2022/04/27 05:41:11;;;;;;;8.00;4.75;;;14.70;99.90;;;;;;5346011;27;20730;-70
2022/04/27 05:43:42;;;;;;;11.38;4.07;;;14.90;99.90;;;;;;5329852;27;20031;-70
2022/04/27 05:46:13;;;;;;;6.70;4.50;;;15.30;99.90;;;;;;5303360;28;20133;-70
2022/04/27 06:00:39;;;;;;;11.02;3.92;;;15.30;99.90;;;;;;5346039;27;20131;-71
2022/04/27 06:03:10;;;;;;;8.35;3.47;;;15.50;99.90;;;;;;5329733;27;20038;-71
2022/04/27 06:05:41;;;;;;;10.27;3.70;;;15.60;99.90;;;;;;5309581;27;20028;-70
2022/04/27 06:08:12;;;;;;;10.80;4.03;;;15.60;99.90;;;;;;5308404;28;20024;-71
2022/04/27 06:10:42;;;;;;;12.20;3.95;;;15.90;99.90;;;;;;5308285;28;20034;-71
2022/04/27 06:13:14;;;;;;;9.40;3.38;;;16.00;99.90;;;;;;5308513;28;20023;-70
2022/04/27 06:15:44;;;;;;;4.75;2.92;;;16.40;99.90;;;;;;5308314;28;20023;-71
2022/04/27 06:18:15;;;;;;;5.65;3.10;;;16.50;99.90;;;;;;5327210;27;20015;-71
2022/04/27 06:20:46;;;;;;;7.10;3.22;;;16.40;99.90;;;;;;5319238;27;20083;-72
2022/04/27 06:23:24;;;;;;;7.53;3.58;;;16.50;99.90;;;;;;5254675;28;20036;-72
2022/04/27 06:25:58;;;;;;;6.38;3.40;;;;;;;;;;5280200;28;20036;-75
2022/04/27 06:28:33;;;;;;;7.22;3.08;;;16.80;99.90;;;;;;5286024;28;20119;-75
2022/04/27 06:31:08;;;;;;;7.30;2.97;;;17.20;99.90;;;;;;5286372;28;20035;-76
2022/04/27 06:33:43;;;;;;;7.10;2.88;;;16.50;99.90;;;;;;5284797;28;20530;-74
2022/04/27 06:36:23;;;;;;;7.95;3.03;;;16.40;99.90;;;;;;5292579;28;20377;-75
2022/04/27 06:39:01;;;;;;;4.97;2.50;;;17.00;99.90;;;;;;5307810;28;20030;-75
2022/04/27 06:41:36;;;;;;;7.30;2.90;;;16.60;99.90;;;;;;5306653;28;20123;-71
2022/04/27 06:44:16;;;;;;;5.03;2.55;;;16.90;99.90;;;;;;5307186;28;20029;-70
2022/04/27 06:47:00;;;;;;;5.03;3.13;;;16.80;99.90;;;;;;5306804;28;20428;-70
2022/04/27 06:49:41;;;;;;;10.95;2.97;;;17.00;99.90;;;;;;5307172;28;20150;-73
2022/04/27 06:52:20;;;;;;;5.40;3.08;;;17.20;99.90;;;;;;5306548;28;20027;-73
2022/04/27 06:54:55;;;;;;;8.52;2.70;;;17.20;99.90;;;;;;5307123;28;20491;-74
2022/04/27 06:57:29;;;;;;;6.60;2.67;;;17.40;99.90;;;;;;5306682;28;20084;-74
2022/04/27 07:00:10;;;;;;;5.32;2.88;;;17.30;99.90;;;;;;5299486;28;20050;-74
2022/04/27 07:02:43;;;;;;;;;;;17.30;99.90;;;;;;5291148;28;20103;-74
2022/04/27 07:05:20;;;;;;;6.65;2.60;;;17.40;99.90;;;;;;5293131;28;19926;-72
2022/04/27 07:07:51;;;;;;;4.15;2.60;;;17.60;99.90;;;;;;5292870;28;20073;-73
2022/04/27 07:10:26;;;;;;;3.58;2.40;;;18.00;99.90;;;;;;5292666;28;20036;-73
2022/04/27 07:12:58;;;;;;;6.63;2.58;;;17.70;99.90;;;;;;5292848;28;20019;-69
2022/04/27 07:15:32;;;;;;;16.25;3.10;;;17.90;99.90;;;;;;5292522;28;20032;-70
2022/04/27 07:18:08;;;;;;;12.38;3.22;;;17.50;99.90;;;;;;5292504;28;20031;-70
2022/04/27 07:20:44;;;;;;;6.47;2.20;;;18.10;99.90;;;;;;5292653;28;20346;-71
2022/04/27 07:23:18;;;;;;;6.53;2.55;;;18.10;99.90;;;;;;5291762;28;20415;-71
2022/04/27 07:25:53;;;;;;;6.72;2.33;;;17.90;99.90;;;;;;5292321;28;20046;-70
2022/04/27 07:28:31;;;;;;;5.85;2.70;;;17.90;99.90;;;;;;5292325;28;20036;-70
2022/04/27 07:31:11;;;;;;;4.07;2.55;;;18.00;99.90;;;;;;5292501;28;20059;-70
2022/04/27 07:33:45;;;;;;;5.72;2.75;;;18.30;99.90;;;;;;5292382;28;20043;-70
2022/04/27 07:36:19;;;;;;;6.80;2.50;;;17.80;99.90;;;;;;5292228;28;20490;-70
2022/04/27 07:38:54;;;;;;;5.60;2.08;;;17.80;99.90;;;;;;5292006;28;20035;-69
2022/04/27 07:41:29;;;;;;;7.18;3.03;;;18.00;99.90;;;;;;5292145;28;20115;-69
2022/04/27 07:44:03;;;;;;;4.47;2.15;;;18.40;99.90;;;;;;5291912;28;20027;-70
2022/04/27 07:46:43;;;;;;;4.55;2.00;;;18.10;99.90;;;;;;5291847;28;20471;-69
2022/04/27 07:49:14;;;;;;;4.13;2.47;;;18.20;99.90;;;;;;5286370;28;20035;-71
2022/04/27 07:51:50;;;;;;;4.22;2.30;;;18.30;99.90;;;;;;5273749;28;20042;-71
2022/04/27 07:54:24;;;;;;;7.47;2.55;;;18.20;99.90;;;;;;5284088;28;20401;-71
2022/04/27 07:56:56;;;;;;;3.72;2.28;;;18.10;99.90;;;;;;5282500;28;20362;-71
2022/04/27 07:59:34;;;;;;;5.50;2.30;;;18.00;99.90;;;;;;5290392;28;20111;-73
2022/04/27 08:02:08;;;;;;;6.18;2.40;;;18.90;99.90;;;;;;5289812;28;20031;-73
2022/04/27 08:04:40;;;;;;;7.57;2.28;;;18.40;99.90;;;;;;5291118;28;20038;-71
2022/04/27 08:07:16;;;;;;;8.80;2.20;;;18.40;99.90;;;;;;5290667;28;20026;-70
2022/04/27 08:09:50;;;;;;;3.33;2.15;;;18.90;99.90;;;;;;5291007;28;20194;-74
2022/04/27 08:12:23;;;;;;;6.32;2.30;;;18.70;99.90;;;;;;5289742;28;20354;-70
2022/04/27 08:15:01;;;;;;;8.02;2.55;;;18.40;99.90;;;;;;5290762;28;20038;-73
2022/04/27 08:17:54;;;;;;;4.97;2.28;;;18.70;99.90;;;;;;5290883;28;20023;-69
2022/04/27 08:23:28;;;;;;;5.13;2.30;;;19.00;99.90;;;;;;5291093;28;20072;-70
2022/04/27 08:26:07;;;;;;;7.10;2.38;;;19.00;99.90;;;;;;5289659;28;20059;-70
2022/04/27 08:28:47;;;;;;;5.90;2.45;;;18.80;99.90;;;;;;5290604;28;20043;-70
2022/04/27 08:31:24;;;;;;;4.47;2.50;;;19.10;99.90;;;;;;5290526;28;20040;-73
2022/04/27 08:34:01;;;;;;;3.22;2.55;;;18.70;99.90;;;;;;5289192;28;20041;-70
2022/04/27 08:36:40;;;;;;;4.97;2.03;;;18.60;99.90;;;;;;5290523;28;20023;-70
2022/04/27 08:39:13;;;;;;;3.08;1.98;;;19.10;99.90;;;;;;5290289;28;20424;-70
2022/04/27 08:41:47;;;;;;;5.72;2.42;;;19.00;99.90;;;;;;5289960;28;20031;-72
2022/04/27 08:44:24;;;;;;;8.60;2.50;;;19.00;99.90;;;;;;5290348;28;20497;-72
2022/04/27 08:47:00;;;;;;;10.98;2.67;;;18.60;99.90;;;;;;5290373;28;20038;-71
2022/04/27 08:49:37;;;;;;;5.38;2.60;;;18.80;99.90;;;;;;5289878;28;20031;-70
2022/04/27 08:52:13;;;;;;;3.55;1.88;;;18.80;99.90;;;;;;5289967;28;20496;-71
2022/04/27 08:54:53;;;;;;;6.28;2.20;;;19.10;99.90;;;;;;5290048;28;20070;-73
2022/04/27 08:57:34;;;;;;;7.78;2.45;;;19.40;99.90;;;;;;5290220;28;20073;-73
2022/04/27 09:00:18;;;;;;;4.20;2.00;;;19.60;99.90;;;;;;5289819;28;20073;-71
2022/04/27 09:02:56;;;;;;;4.53;2.15;;;19.80;99.90;;;;;;5290291;28;20031;-70
2022/04/27 09:05:35;;;;;;;5.05;2.20;;;19.30;99.90;;;;;;5290083;28;20520;-70
2022/04/27 09:08:09;;;;;;;4.57;2.33;;;19.40;99.90;;;;;;5290075;28;20040;-69
2022/04/27 09:10:44;;;;;;;2.53;1.92;;;19.80;99.90;;;;;;5289230;28;20043;-69
2022/04/27 09:13:31;;;;;;;5.60;2.60;;;19.70;99.90;;;;;;5289529;28;20027;-69
2022/04/27 09:16:07;;;;;;;4.95;2.25;;;19.40;99.90;;;;;;5270729;28;20032;-70
2022/04/27 09:22:05;;;;;;;7.75;2.00;;;19.30;99.90;;;;;;5269239;28;20120;-72
2022/04/27 09:24:58;;;;;;;5.22;2.55;;;19.90;99.90;;;;;;5268663;28;20164;-72
2022/04/27 09:27:37;;;;;;;5.00;2.10;;;19.90;99.90;;;;;;5267451;28;20044;-73
2022/04/27 09:30:16;;;;;;;6.03;2.00;;;20.20;99.90;;;;;;5268324;28;20123;-72
2022/04/27 09:32:53;;;;;;;4.78;2.05;;;19.90;99.90;;;;;;5279057;28;20031;-72
2022/04/27 09:35:57;;;;;;;3.80;1.88;;;20.10;99.90;;;;;;5289799;28;20023;-70
2022/04/27 09:38:41;;;;;;;5.82;1.90;;;19.30;99.90;;;;;;5269871;28;20154;-70
2022/04/27 09:41:35;;;;;;;5.63;2.35;;;19.70;99.90;;;;;;5289494;28;20031;-71
2022/04/27 09:44:30;;;;;;;5.00;2.00;;;20.20;99.90;;;;;;5289449;28;20031;-70
2022/04/27 09:47:09;;;;;;;3.58;1.83;;;20.50;99.90;;;;;;5289138;28;20099;-70
2022/04/27 09:49:47;;;;;;;5.47;2.10;;;20.10;99.90;;;;;;5279515;28;20020;-71
2022/04/27 09:52:23;;;;;;;4.82;2.08;;;20.50;99.90;;;;;;5268167;28;20017;-73
2022/04/27 09:55:00;;;;;;;5.82;1.92;;;20.60;99.90;;;;;;5268397;28;20078;-71
2022/04/27 09:57:35;;;;;;;4.25;1.60;;;20.90;99.90;;;;;;5270086;28;20034;-72
2022/04/27 10:00:12;;;;;;;5.28;1.83;;;19.80;99.90;;;;;;5268020;28;20120;-72
2022/04/27 10:02:49;;;;;;;6.22;1.77;;;20.30;99.90;;;;;;5268165;28;20033;-71
2022/04/27 10:05:27;;;;;;;3.92;1.70;;;20.40;99.90;;;;;;5268262;28;20460;-70
2022/04/27 10:08:03;;;;;;;4.57;1.70;;;20.60;99.90;;;;;;5268033;28;20032;-71
2022/04/27 10:10:45;;;;;;;5.50;1.70;;;20.90;99.90;;;;;;5268280;28;20404;-72
2022/04/27 10:13:25;;;;;;;5.15;1.90;;;20.60;99.90;;;;;;5268101;28;20074;-74
2022/04/27 10:16:04;;;;;;;7.60;1.80;;;20.50;99.90;;;;;;5268496;28;20055;-71
2022/04/27 10:18:37;;;;;;;3.85;1.80;;;20.20;99.90;;;;;;5268039;28;20375;-71
2022/04/27 10:21:14;;;;;;;7.90;1.70;;;20.80;99.90;;;;;;5287155;28;20027;-69
2022/04/27 10:23:47;;;;;;;2.78;1.90;;;21.00;99.90;;;;;;5289435;28;20020;-70
2022/04/27 10:26:42;;;;;;;3.30;2.05;;;20.50;99.90;;;;;;5288683;28;20020;-70
2022/04/27 10:29:17;;;;;;;6.82;2.03;;;21.00;99.90;;;;;;5288305;28;20057;-72
2022/04/27 10:31:55;;;;;;;7.65;2.35;;;20.50;99.90;;;;;;5270186;28;20076;-70
2022/04/27 10:34:26;;;;;;;6.05;1.90;;;21.00;99.90;;;;;;5289189;28;20027;-71
2022/04/27 10:36:58;;;;;;;5.40;2.30;;;21.10;99.90;;;;;;5292785;28;20367;-71
2022/04/27 10:39:30;;;;;;;2.58;1.60;;;20.70;99.90;;;;;;5293204;28;20463;-71
2022/04/27 10:42:04;;;;;;;3.40;1.77;;;20.60;99.90;;;;;;5257116;28;20071;-73
2022/04/27 10:44:58;;;;;;;4.95;1.77;;;21.00;99.90;;;;;;5292891;28;20030;-74
2022/04/27 10:47:44;;;;;;;6.70;1.95;;;20.40;99.90;;;;;;5292842;28;20027;-75
2022/04/27 10:50:21;;;;;;;3.47;1.98;;;21.00;99.90;;;;;;5292685;28;20028;-75
2022/04/27 10:52:55;;;;;;;6.05;1.70;;;20.50;99.90;;;;;;5292863;28;20055;-72
2022/04/27 10:55:43;;;;;;;4.95;1.90;;;20.90;99.90;;;;;;5292850;28;20019;-71
2022/04/27 10:58:42;;;;;;;5.75;2.00;;;21.30;99.90;;;;;;5292975;28;20482;-70
2022/04/27 11:01:15;;;;;;;5.22;1.98;;;20.90;99.90;;;;;;5292753;28;20096;-70
2022/04/27 11:04:04;;;;;;;5.40;1.88;;;21.40;99.90;;;;;;5292749;28;20459;-73
2022/04/27 11:07:04;;;;;;;4.00;1.60;;;20.20;99.90;;;;;;5292811;28;20103;-73
2022/04/27 11:09:43;;;;;;;4.47;1.70;;;20.00;99.90;;;;;;5291947;28;20043;-69
2022/04/27 11:12:14;;;;;;;5.65;1.77;;;20.40;99.90;;;;;;5292573;28;20023;-71
2022/04/27 11:14:47;;;;;;;3.90;2.05;;;21.30;99.90;;;;;;5292386;28;20404;-71
2022/04/27 11:17:33;;;;;;;7.45;2.08;;;20.50;99.90;;;;;;5273563;28;20616;-70
2022/04/27 11:20:06;;;;;;;5.85;2.55;;;20.40;99.90;;;;;;5292123;28;20023;-70
2022/04/27 11:22:38;;;;;;;8.35;2.55;;;20.70;99.90;;;;;;5292230;28;20027;-70
2022/04/27 11:25:09;;;;;;;4.70;2.33;;;21.00;99.90;;;;;;5292258;28;20520;-71
2022/04/27 11:27:41;;;;;;;4.50;2.10;;;20.90;99.90;;;;;;5292406;28;20114;-70
2022/04/27 11:30:13;;;;;;;4.38;2.03;;;20.60;99.90;;;;;;5291999;28;20362;-72
2022/04/27 11:32:51;;;;;;;3.28;1.60;;;20.20;99.90;;;;;;5288172;28;20370;-70
2022/04/27 11:35:25;;;;;;;7.20;2.10;;;21.00;99.90;;;;;;5291336;28;20023;-70
2022/04/27 11:37:56;;;;;;;9.18;2.13;;;21.10;99.90;;;;;;5279816;28;20028;-73
2022/04/27 11:40:27;;;;;;;4.05;2.08;;;20.80;99.90;;;;;;5275341;28;20024;-73
2022/04/27 11:43:00;;;;;;;4.18;2.03;;;20.40;99.90;;;;;;5270705;28;20482;-72
2022/04/27 11:45:30;;;;;;;3.47;1.70;;;21.00;99.90;;;;;;5270741;28;20024;-73
2022/04/27 11:48:04;;;;;;;3.67;1.92;;;20.00;99.90;;;;;;5270677;28;20355;-73
2022/04/27 11:50:42;;;;;;;9.65;2.00;;;20.70;99.90;;;;;;5285650;28;20111;-73
2022/04/27 11:53:13;;;;;;;3.35;1.75;;;20.70;99.90;;;;;;5291471;28;20039;-71
2022/04/27 11:55:50;;;;;;;6.35;2.10;;;20.70;99.90;;;;;;5291822;28;20030;-71
2022/04/27 11:58:25;;;;;;;5.40;1.85;;;20.00;99.90;;;;;;5291265;28;20080;-70
2022/04/27 12:01:00;;;;;;;3.70;1.90;;;20.50;99.90;;;;;;5291568;28;20035;-71
2022/04/27 12:03:40;;;;;;;5.80;1.85;;;20.80;99.90;;;;;;5291800;28;20020;-70
2022/04/27 12:06:26;;;;;;;3.22;1.70;;;20.80;99.90;;;;;;5291413;28;20032;-75
2022/04/27 12:09:02;;;;;;;11.07;2.30;;;21.30;99.90;;;;;;5291375;28;20036;-73
2022/04/27 12:11:34;;;;;;;5.50;1.52;;;20.80;99.90;;;;;;5291824;28;20039;-74
2022/04/27 12:14:05;;;;;;;1.90;1.70;;;20.70;99.90;;;;;;5291366;28;20034;-70
2022/04/27 12:16:39;;;;;;;3.92;1.65;;;20.80;99.90;;;;;;5290944;28;20032;-72
2022/04/27 12:19:10;;;;;;;6.60;1.92;;;21.20;99.90;;;;;;5290875;28;20012;-71
2022/04/27 12:21:42;;;;;;;3.70;2.00;;;20.90;99.90;;;;;;5291433;28;20026;-69
2022/04/27 12:24:17;;;;;;;5.10;1.88;;;21.40;99.90;;;;;;5291158;28;20035;-70
2022/04/27 12:26:48;;;;;;;3.85;1.88;;;21.10;99.90;;;;;;5291237;28;20095;-70
2022/04/27 12:29:23;;;;;;;6.28;2.08;;;20.90;99.90;;;;;;5291023;28;20031;-71
2022/04/27 12:31:57;;;;;;;5.82;2.08;;;21.00;99.90;;;;;;5289406;28;20023;-70
2022/04/27 12:37:30;;;;;;;6.47;2.00;;;20.40;99.90;;;;;;5289712;28;20031;-72
2022/04/27 12:40:14;;;;;;;5.35;1.98;;;20.50;99.90;;;;;;5286342;28;20130;-70
2022/04/27 12:43:06;;;;;;;4.60;1.80;;;20.40;99.90;;;;;;5269886;28;20146;-68
2022/04/27 12:45:38;;;;;;;5.50;2.17;;;20.30;99.90;;;;;;5269678;28;20027;-69
2022/04/27 12:48:27;;;;;;;4.55;2.35;;;20.60;99.90;;;;;;5269666;28;20025;-69
2022/04/27 12:51:01;;;;;;;4.97;1.90;;;20.00;99.90;;;;;;5287646;28;20043;-70
2022/04/27 12:53:32;;;;;;;2.63;1.80;;;20.80;99.90;;;;;;5290397;28;20102;-69
2022/04/27 12:56:09;;;;;;;5.05;1.95;;;20.20;99.90;;;;;;5290459;28;20026;-70
2022/04/27 12:58:40;;;;;;;3.72;1.98;;;20.80;99.90;;;;;;5289742;28;20521;-70
2022/04/27 13:01:31;;;;;;;4.15;1.98;;;20.40;99.90;;;;;;5290455;28;20028;-69
2022/04/27 13:04:02;;;;;;;2.97;1.40;;;20.10;99.90;;;;;;5290465;28;20084;-69
2022/04/27 13:06:33;;;;;;;6.57;1.73;;;21.00;99.90;;;;;;5290606;28;20055;-69
2022/04/27 13:11:56;;;;;;;4.93;2.70;;;20.20;99.90;;;;;;5290708;28;20026;-69
2022/04/27 13:14:28;;;;;;;3.47;1.70;;;20.10;99.90;;;;;;5274255;28;20164;-70
2022/04/27 13:16:59;;;;;;;3.53;2.15;;;19.90;99.90;;;;;;5285904;28;20381;-69
2022/04/27 13:19:30;;;;;;;4.82;1.95;;;20.10;99.90;;;;;;5290016;28;20016;-68
2022/04/27 13:22:01;;;;;;;3.70;1.85;;;20.40;99.90;;;;;;5290371;28;20019;-69
2022/04/27 13:24:32;;;;;;;5.07;1.77;;;19.90;99.90;;;;;;5290253;28;20024;-69
2022/04/27 13:27:03;;;;;;;6.22;1.80;;;20.10;99.90;;;;;;5286239;28;20027;-75
2022/04/27 13:29:33;;;;;;;7.10;2.10;;;19.90;99.90;;;;;;5289745;28;20047;-70
2022/04/27 13:32:05;;;;;;;5.13;1.90;;;19.60;99.90;;;;;;5290215;28;20020;-69
2022/04/27 13:34:36;;;;;;;4.15;2.33;;;19.80;99.90;;;;;;5290208;28;20035;-75
2022/04/27 13:37:07;;;;;;;4.07;1.77;;;20.20;99.90;;;;;;5290438;28;20023;-76
2022/04/27 13:39:38;;;;;;;8.07;1.88;;;19.70;99.90;;;;;;5285200;28;20114;-70
2022/04/27 13:42:09;;;;;;;7.70;2.38;;;19.60;99.90;;;;;;5287233;28;20141;-70
2022/04/27 13:44:40;;;;;;;5.43;1.92;;;19.60;99.90;;;;;;5289786;28;20073;-71
2022/04/27 13:47:10;;;;;;;4.38;1.80;;;19.70;99.90;;;;;;5289870;28;20024;-73
2022/04/27 13:49:42;;;;;;;4.10;1.98;;;19.50;99.90;;;;;;5289495;28;20042;-76
2022/04/27 13:52:12;;;;;;;3.42;1.80;;;19.70;99.90;;;;;;5289917;28;20023;-69
2022/04/27 13:54:43;;;;;;;7.97;2.35;;;19.80;99.90;;;;;;5289703;28;20378;-70
2022/04/27 13:57:14;;;;;;;3.97;2.22;;;19.80;99.90;;;;;;5289542;28;20027;-76
2022/04/27 13:59:45;;;;;;;5.25;1.73;;;19.60;99.90;;;;;;5289340;28;20372;-75
2022/04/27 14:02:16;;;;;;;3.72;2.00;;;19.50;99.90;;;;;;5289720;28;20023;-74
2022/04/27 14:04:47;;;;;;;2.92;2.03;;;19.60;99.90;;;;;;5289776;28;20019;-73
2022/04/27 14:07:18;;;;;;;8.38;2.17;;;19.60;99.90;;;;;;5289438;28;20104;-69